sensor_id;sensor_type;location;lat;lon;timestamp;temperature;humidity
9564;DHT22;4820;50.870;4.702;2024-02-26T00:01:38;7.80;99.90
9564;DHT22;4820;50.870;4.702;2024-02-26T00:04:04;7.80;99.90
9564;DHT22;4820;50.870;4.702;2024-02-26T00:06:30;7.80;99.90
9564;DHT22;4820;50.870;4.702;2024-02-26T00:08:56;7.80;99.90
9564;DHT22;4820;50.870;4.702;2024-02-26T00:11:22;7.80;99.90
9564;DHT22;4820;50.870;4.702;2024-02-26T00:13:48;7.70;99.90
9564;DHT22;4820;50.870;4.702;2024-02-26T00:16:13;7.70;99.90
9564;DHT22;4820;50.870;4.702;2024-02-26T00:18:39;7.70;99.90
9564;DHT22;4820;50.870;4.702;2024-02-26T00:21:05;7.70;99.90
9564;DHT22;4820;50.870;4.702;2024-02-26T00:23:30;7.70;99.90
9564;DHT22;4820;50.870;4.702;2024-02-26T00:25:56;7.60;99.90
9564;DHT22;4820;50.870;4.702;2024-02-26T00:28:22;7.70;99.90
9564;DHT22;4820;50.870;4.702;2024-02-26T00:30:47;7.60;99.90
9564;DHT22;4820;50.870;4.702;2024-02-26T00:33:16;7.70;99.90
9564;DHT22;4820;50.870;4.702;2024-02-26T00:35:42;7.60;99.90
9564;DHT22;4820;50.870;4.702;2024-02-26T00:38:08;7.60;99.90
9564;DHT22;4820;50.870;4.702;2024-02-26T00:40:33;7.60;99.90
9564;DHT22;4820;50.870;4.702;2024-02-26T00:42:59;7.60;99.90
9564;DHT22;4820;50.870;4.702;2024-02-26T00:45:25;7.60;99.90
9564;DHT22;4820;50.870;4.702;2024-02-26T00:47:51;7.60;99.90
9564;DHT22;4820;50.870;4.702;2024-02-26T00:50:16;7.60;99.90
9564;DHT22;4820;50.870;4.702;2024-02-26T00:52:42;7.50;99.90
9564;DHT22;4820;50.870;4.702;2024-02-26T00:55:08;7.50;99.90
9564;DHT22;4820;50.870;4.702;2024-02-26T00:57:34;7.50;99.90
9564;DHT22;4820;50.870;4.702;2024-02-26T01:00:00;7.50;99.90
9564;DHT22;4820;50.870;4.702;2024-02-26T01:02:26;7.50;99.90
9564;DHT22;4820;50.870;4.702;2024-02-26T01:04:52;7.50;99.90
9564;DHT22;4820;50.870;4.702;2024-02-26T01:07:18;7.40;99.90
9564;DHT22;4820;50.870;4.702;2024-02-26T01:09:44;7.40;99.90
9564;DHT22;4820;50.870;4.702;2024-02-26T01:12:10;7.40;99.90
9564;DHT22;4820;50.870;4.702;2024-02-26T01:14:35;7.40;99.90
9564;DHT22;4820;50.870;4.702;2024-02-26T01:17:01;7.40;99.90
9564;DHT22;4820;50.870;4.702;2024-02-26T01:19:27;7.40;99.90
9564;DHT22;4820;50.870;4.702;2024-02-26T01:21:53;7.40;99.90
9564;DHT22;4820;50.870;4.702;2024-02-26T01:24:18;7.30;99.90
9564;DHT22;4820;50.870;4.702;2024-02-26T01:26:44;7.30;99.90
9564;DHT22;4820;50.870;4.702;2024-02-26T01:29:10;7.30;99.90
9564;DHT22;4820;50.870;4.702;2024-02-26T01:31:35;7.30;99.90
9564;DHT22;4820;50.870;4.702;2024-02-26T01:34:01;7.30;99.90
9564;DHT22;4820;50.870;4.702;2024-02-26T01:36:27;7.30;99.90
9564;DHT22;4820;50.870;4.702;2024-02-26T01:38:52;7.20;99.90
9564;DHT22;4820;50.870;4.702;2024-02-26T01:41:18;7.20;99.90
9564;DHT22;4820;50.870;4.702;2024-02-26T01:43:44;7.20;99.90
9564;DHT22;4820;50.870;4.702;2024-02-26T01:46:13;7.20;99.90
9564;DHT22;4820;50.870;4.702;2024-02-26T01:48:43;7.10;99.90
9564;DHT22;4820;50.870;4.702;2024-02-26T01:51:10;7.10;99.90
9564;DHT22;4820;50.870;4.702;2024-02-26T01:53:36;7.10;99.90
9564;DHT22;4820;50.870;4.702;2024-02-26T01:56:02;7.10;99.90
9564;DHT22;4820;50.870;4.702;2024-02-26T01:58:28;7.10;99.90
9564;DHT22;4820;50.870;4.702;2024-02-26T02:00:56;7.10;99.90
9564;DHT22;4820;50.870;4.702;2024-02-26T02:03:22;7.10;99.90
9564;DHT22;4820;50.870;4.702;2024-02-26T02:05:48;7.10;99.90
9564;DHT22;4820;50.870;4.702;2024-02-26T02:08:13;7.10;99.90
9564;DHT22;4820;50.870;4.702;2024-02-26T02:10:44;7.10;99.90
9564;DHT22;4820;50.870;4.702;2024-02-26T02:13:10;7.10;99.90
9564;DHT22;4820;50.870;4.702;2024-02-26T02:15:35;7.10;99.90
9564;DHT22;4820;50.870;4.702;2024-02-26T02:18:01;7.10;99.90
9564;DHT22;4820;50.870;4.702;2024-02-26T02:20:36;7.10;99.90
9564;DHT22;4820;50.870;4.702;2024-02-26T02:23:02;7.10;99.90
9564;DHT22;4820;50.870;4.702;2024-02-26T02:25:28;7.10;99.90
9564;DHT22;4820;50.870;4.702;2024-02-26T02:27:56;7.10;99.90
9564;DHT22;4820;50.870;4.702;2024-02-26T02:30:24;7.10;99.90
9564;DHT22;4820;50.870;4.702;2024-02-26T02:32:51;7.10;99.90
9564;DHT22;4820;50.870;4.702;2024-02-26T02:35:17;7.10;99.90
9564;DHT22;4820;50.870;4.702;2024-02-26T02:37:42;7.10;99.90
9564;DHT22;4820;50.870;4.702;2024-02-26T02:40:08;7.00;99.90
9564;DHT22;4820;50.870;4.702;2024-02-26T02:42:34;7.00;99.90
9564;DHT22;4820;50.870;4.702;2024-02-26T02:44:59;7.00;99.90
9564;DHT22;4820;50.870;4.702;2024-02-26T02:47:25;7.00;99.90
9564;DHT22;4820;50.870;4.702;2024-02-26T02:49:50;7.00;99.90
9564;DHT22;4820;50.870;4.702;2024-02-26T02:52:16;7.00;99.90
9564;DHT22;4820;50.870;4.702;2024-02-26T02:54:42;7.00;99.90
9564;DHT22;4820;50.870;4.702;2024-02-26T02:57:10;7.00;99.90
9564;DHT22;4820;50.870;4.702;2024-02-26T02:59:37;7.00;99.90
9564;DHT22;4820;50.870;4.702;2024-02-26T03:02:02;6.90;99.90
9564;DHT22;4820;50.870;4.702;2024-02-26T03:04:28;6.90;99.90
9564;DHT22;4820;50.870;4.702;2024-02-26T03:06:55;6.90;99.90
9564;DHT22;4820;50.870;4.702;2024-02-26T03:09:20;6.90;99.90
9564;DHT22;4820;50.870;4.702;2024-02-26T03:11:46;6.90;99.90
9564;DHT22;4820;50.870;4.702;2024-02-26T03:14:12;6.90;99.90
9564;DHT22;4820;50.870;4.702;2024-02-26T03:16:37;6.90;99.90
9564;DHT22;4820;50.870;4.702;2024-02-26T03:19:03;6.90;99.90
9564;DHT22;4820;50.870;4.702;2024-02-26T03:21:29;6.90;99.90
9564;DHT22;4820;50.870;4.702;2024-02-26T03:23:54;7.00;99.90
9564;DHT22;4820;50.870;4.702;2024-02-26T03:26:20;7.00;99.90
9564;DHT22;4820;50.870;4.702;2024-02-26T03:28:47;7.00;99.90
9564;DHT22;4820;50.870;4.702;2024-02-26T03:31:13;7.00;99.90
9564;DHT22;4820;50.870;4.702;2024-02-26T03:33:38;7.00;99.90
9564;DHT22;4820;50.870;4.702;2024-02-26T03:36:04;7.00;99.90
9564;DHT22;4820;50.870;4.702;2024-02-26T03:38:30;7.00;99.90
9564;DHT22;4820;50.870;4.702;2024-02-26T03:40:56;7.00;99.90
9564;DHT22;4820;50.870;4.702;2024-02-26T03:43:22;7.00;99.90
9564;DHT22;4820;50.870;4.702;2024-02-26T03:45:48;7.00;99.90
9564;DHT22;4820;50.870;4.702;2024-02-26T03:48:13;7.10;99.90
9564;DHT22;4820;50.870;4.702;2024-02-26T03:50:39;7.10;99.90
9564;DHT22;4820;50.870;4.702;2024-02-26T03:53:05;7.10;99.90
9564;DHT22;4820;50.870;4.702;2024-02-26T03:55:30;7.10;99.90
9564;DHT22;4820;50.870;4.702;2024-02-26T03:57:56;7.00;99.90
9564;DHT22;4820;50.870;4.702;2024-02-26T04:00:22;7.00;99.90
9564;DHT22;4820;50.870;4.702;2024-02-26T04:02:47;7.00;99.90
9564;DHT22;4820;50.870;4.702;2024-02-26T04:05:14;7.00;99.90
9564;DHT22;4820;50.870;4.702;2024-02-26T04:07:40;7.00;99.90
9564;DHT22;4820;50.870;4.702;2024-02-26T04:10:15;7.00;99.90
9564;DHT22;4820;50.870;4.702;2024-02-26T04:12:42;7.00;99.90
9564;DHT22;4820;50.870;4.702;2024-02-26T04:15:08;7.00;99.90
9564;DHT22;4820;50.870;4.702;2024-02-26T04:17:34;6.90;99.90
9564;DHT22;4820;50.870;4.702;2024-02-26T04:20:00;6.90;99.90
9564;DHT22;4820;50.870;4.702;2024-02-26T04:22:26;6.90;99.90
9564;DHT22;4820;50.870;4.702;2024-02-26T04:24:51;6.90;99.90
9564;DHT22;4820;50.870;4.702;2024-02-26T04:27:17;6.90;99.90
9564;DHT22;4820;50.870;4.702;2024-02-26T04:29:43;7.00;99.90
9564;DHT22;4820;50.870;4.702;2024-02-26T04:32:08;6.90;99.90
9564;DHT22;4820;50.870;4.702;2024-02-26T04:34:34;6.90;99.90
9564;DHT22;4820;50.870;4.702;2024-02-26T04:37:00;6.90;99.90
9564;DHT22;4820;50.870;4.702;2024-02-26T04:39:26;6.90;99.90
9564;DHT22;4820;50.870;4.702;2024-02-26T04:41:51;6.90;99.90
9564;DHT22;4820;50.870;4.702;2024-02-26T04:44:17;7.00;99.90
9564;DHT22;4820;50.870;4.702;2024-02-26T04:46:42;7.00;99.90
9564;DHT22;4820;50.870;4.702;2024-02-26T04:49:09;6.90;99.90
9564;DHT22;4820;50.870;4.702;2024-02-26T04:51:34;6.90;99.90
9564;DHT22;4820;50.870;4.702;2024-02-26T04:54:00;6.90;99.90
9564;DHT22;4820;50.870;4.702;2024-02-26T04:56:26;6.90;99.90
9564;DHT22;4820;50.870;4.702;2024-02-26T04:58:51;7.00;99.90
9564;DHT22;4820;50.870;4.702;2024-02-26T05:01:17;6.90;99.90
9564;DHT22;4820;50.870;4.702;2024-02-26T05:03:44;7.00;99.90
9564;DHT22;4820;50.870;4.702;2024-02-26T05:06:09;6.90;99.90
9564;DHT22;4820;50.870;4.702;2024-02-26T05:08:35;6.90;99.90
9564;DHT22;4820;50.870;4.702;2024-02-26T05:11:02;6.90;99.90
9564;DHT22;4820;50.870;4.702;2024-02-26T05:13:28;6.90;99.90
9564;DHT22;4820;50.870;4.702;2024-02-26T05:15:54;6.90;99.90
9564;DHT22;4820;50.870;4.702;2024-02-26T05:18:20;6.90;99.90
9564;DHT22;4820;50.870;4.702;2024-02-26T05:20:45;6.90;99.90
9564;DHT22;4820;50.870;4.702;2024-02-26T05:23:11;6.80;99.90
9564;DHT22;4820;50.870;4.702;2024-02-26T05:25:37;6.80;99.90
9564;DHT22;4820;50.870;4.702;2024-02-26T05:28:03;6.80;99.90
9564;DHT22;4820;50.870;4.702;2024-02-26T05:30:28;6.90;99.90
9564;DHT22;4820;50.870;4.702;2024-02-26T05:32:54;6.80;99.90
9564;DHT22;4820;50.870;4.702;2024-02-26T05:35:20;7.00;99.90
9564;DHT22;4820;50.870;4.702;2024-02-26T05:37:46;6.90;99.90
9564;DHT22;4820;50.870;4.702;2024-02-26T05:40:12;6.90;99.90
9564;DHT22;4820;50.870;4.702;2024-02-26T05:42:38;6.90;99.90
9564;DHT22;4820;50.870;4.702;2024-02-26T05:45:04;6.80;99.90
9564;DHT22;4820;50.870;4.702;2024-02-26T05:47:34;6.90;99.90
9564;DHT22;4820;50.870;4.702;2024-02-26T05:50:01;6.90;99.90
9564;DHT22;4820;50.870;4.702;2024-02-26T05:52:27;6.90;99.90
9564;DHT22;4820;50.870;4.702;2024-02-26T05:54:53;6.90;99.90
9564;DHT22;4820;50.870;4.702;2024-02-26T05:57:19;6.90;99.90
9564;DHT22;4820;50.870;4.702;2024-02-26T05:59:45;6.90;99.90
9564;DHT22;4820;50.870;4.702;2024-02-26T06:02:11;6.90;99.90
9564;DHT22;4820;50.870;4.702;2024-02-26T06:04:36;6.90;99.90
9564;DHT22;4820;50.870;4.702;2024-02-26T06:07:02;6.90;99.90
9564;DHT22;4820;50.870;4.702;2024-02-26T06:09:28;6.90;99.90
9564;DHT22;4820;50.870;4.702;2024-02-26T06:11:53;6.90;99.90
9564;DHT22;4820;50.870;4.702;2024-02-26T06:14:20;6.90;99.90
9564;DHT22;4820;50.870;4.702;2024-02-26T06:16:46;6.90;99.90
9564;DHT22;4820;50.870;4.702;2024-02-26T06:19:12;6.80;99.90
9564;DHT22;4820;50.870;4.702;2024-02-26T06:21:37;6.90;99.90
9564;DHT22;4820;50.870;4.702;2024-02-26T06:24:03;6.90;99.90
9564;DHT22;4820;50.870;4.702;2024-02-26T06:26:29;6.80;99.90
9564;DHT22;4820;50.870;4.702;2024-02-26T06:28:55;6.80;99.90
9564;DHT22;4820;50.870;4.702;2024-02-26T06:31:24;6.80;99.90
9564;DHT22;4820;50.870;4.702;2024-02-26T06:33:52;6.80;99.90
9564;DHT22;4820;50.870;4.702;2024-02-26T06:36:17;6.80;99.90
9564;DHT22;4820;50.870;4.702;2024-02-26T06:38:43;6.80;99.90
9564;DHT22;4820;50.870;4.702;2024-02-26T06:41:09;6.80;99.90
9564;DHT22;4820;50.870;4.702;2024-02-26T06:43:35;6.80;99.90
9564;DHT22;4820;50.870;4.702;2024-02-26T06:46:01;6.80;99.90
9564;DHT22;4820;50.870;4.702;2024-02-26T06:48:27;6.80;99.90
9564;DHT22;4820;50.870;4.702;2024-02-26T06:50:53;6.80;99.90
9564;DHT22;4820;50.870;4.702;2024-02-26T06:53:19;6.80;99.90
9564;DHT22;4820;50.870;4.702;2024-02-26T06:55:44;6.80;99.90
9564;DHT22;4820;50.870;4.702;2024-02-26T06:58:11;6.80;99.90
9564;DHT22;4820;50.870;4.702;2024-02-26T07:00:36;6.70;99.90
9564;DHT22;4820;50.870;4.702;2024-02-26T07:03:02;6.80;99.90
9564;DHT22;4820;50.870;4.702;2024-02-26T07:05:28;6.80;99.90
9564;DHT22;4820;50.870;4.702;2024-02-26T07:07:54;6.80;99.90
9564;DHT22;4820;50.870;4.702;2024-02-26T07:10:19;6.70;99.90
9564;DHT22;4820;50.870;4.702;2024-02-26T07:12:45;6.70;99.90
9564;DHT22;4820;50.870;4.702;2024-02-26T07:15:11;6.70;99.90
9564;DHT22;4820;50.870;4.702;2024-02-26T07:17:36;6.70;99.90
9564;DHT22;4820;50.870;4.702;2024-02-26T07:20:03;6.80;99.90
9564;DHT22;4820;50.870;4.702;2024-02-26T07:22:32;6.80;99.90
9564;DHT22;4820;50.870;4.702;2024-02-26T07:24:58;6.80;99.90
9564;DHT22;4820;50.870;4.702;2024-02-26T07:27:24;6.80;99.90
9564;DHT22;4820;50.870;4.702;2024-02-26T07:29:49;6.80;99.90
9564;DHT22;4820;50.870;4.702;2024-02-26T07:32:15;6.80;99.90
9564;DHT22;4820;50.870;4.702;2024-02-26T07:34:41;6.80;99.90
9564;DHT22;4820;50.870;4.702;2024-02-26T07:37:11;6.80;99.90
9564;DHT22;4820;50.870;4.702;2024-02-26T07:39:37;6.80;99.90
9564;DHT22;4820;50.870;4.702;2024-02-26T07:42:03;6.80;99.90
9564;DHT22;4820;50.870;4.702;2024-02-26T07:44:28;6.80;99.90
9564;DHT22;4820;50.870;4.702;2024-02-26T07:46:54;6.80;99.90
9564;DHT22;4820;50.870;4.702;2024-02-26T07:49:20;6.80;99.90
9564;DHT22;4820;50.870;4.702;2024-02-26T07:51:46;6.70;99.90
9564;DHT22;4820;50.870;4.702;2024-02-26T07:54:11;6.80;99.90
9564;DHT22;4820;50.870;4.702;2024-02-26T07:56:37;6.70;99.90
9564;DHT22;4820;50.870;4.702;2024-02-26T07:59:03;6.80;99.90
9564;DHT22;4820;50.870;4.702;2024-02-26T08:01:29;6.80;99.90
9564;DHT22;4820;50.870;4.702;2024-02-26T08:03:55;6.80;99.90
9564;DHT22;4820;50.870;4.702;2024-02-26T08:06:21;6.80;99.90
9564;DHT22;4820;50.870;4.702;2024-02-26T08:08:47;6.80;99.90
9564;DHT22;4820;50.870;4.702;2024-02-26T08:11:14;6.80;99.90
9564;DHT22;4820;50.870;4.702;2024-02-26T08:13:41;6.90;99.90
9564;DHT22;4820;50.870;4.702;2024-02-26T08:16:06;6.90;99.90
9564;DHT22;4820;50.870;4.702;2024-02-26T08:18:32;6.90;99.90
9564;DHT22;4820;50.870;4.702;2024-02-26T08:20:58;7.00;99.90
9564;DHT22;4820;50.870;4.702;2024-02-26T08:23:23;6.90;99.90
9564;DHT22;4820;50.870;4.702;2024-02-26T08:25:50;6.90;99.90
9564;DHT22;4820;50.870;4.702;2024-02-26T08:28:16;6.90;99.90
9564;DHT22;4820;50.870;4.702;2024-02-26T08:30:43;6.90;99.90
9564;DHT22;4820;50.870;4.702;2024-02-26T08:33:09;6.90;99.90
9564;DHT22;4820;50.870;4.702;2024-02-26T08:35:36;6.90;99.90
9564;DHT22;4820;50.870;4.702;2024-02-26T08:38:01;6.90;99.90
9564;DHT22;4820;50.870;4.702;2024-02-26T08:40:28;6.90;99.90
9564;DHT22;4820;50.870;4.702;2024-02-26T08:42:54;6.90;99.90
9564;DHT22;4820;50.870;4.702;2024-02-26T08:45:21;6.90;99.90
9564;DHT22;4820;50.870;4.702;2024-02-26T08:47:47;7.00;99.90
9564;DHT22;4820;50.870;4.702;2024-02-26T08:50:14;7.00;99.90
9564;DHT22;4820;50.870;4.702;2024-02-26T08:52:40;7.00;99.90
9564;DHT22;4820;50.870;4.702;2024-02-26T08:55:06;7.10;99.90
9564;DHT22;4820;50.870;4.702;2024-02-26T08:57:34;7.10;99.90
9564;DHT22;4820;50.870;4.702;2024-02-26T09:00:03;7.10;99.90
9564;DHT22;4820;50.870;4.702;2024-02-26T09:02:29;7.00;99.90
9564;DHT22;4820;50.870;4.702;2024-02-26T09:04:55;7.00;99.90
9564;DHT22;4820;50.870;4.702;2024-02-26T09:07:22;7.10;99.90
9564;DHT22;4820;50.870;4.702;2024-02-26T09:09:48;7.00;99.90
9564;DHT22;4820;50.870;4.702;2024-02-26T09:12:13;7.00;99.90
9564;DHT22;4820;50.870;4.702;2024-02-26T09:14:39;7.00;99.90
9564;DHT22;4820;50.870;4.702;2024-02-26T09:17:05;7.00;99.90
9564;DHT22;4820;50.870;4.702;2024-02-26T09:19:32;7.00;99.90
9564;DHT22;4820;50.870;4.702;2024-02-26T09:21:58;7.00;99.90
9564;DHT22;4820;50.870;4.702;2024-02-26T09:24:24;7.00;99.90
9564;DHT22;4820;50.870;4.702;2024-02-26T09:26:50;7.00;99.90
9564;DHT22;4820;50.870;4.702;2024-02-26T09:29:17;7.00;99.90
9564;DHT22;4820;50.870;4.702;2024-02-26T09:31:43;7.00;99.90
9564;DHT22;4820;50.870;4.702;2024-02-26T09:34:12;6.90;99.90
9564;DHT22;4820;50.870;4.702;2024-02-26T09:36:38;7.00;99.90
9564;DHT22;4820;50.870;4.702;2024-02-26T09:39:03;7.00;99.90
9564;DHT22;4820;50.870;4.702;2024-02-26T09:41:30;7.00;99.90
9564;DHT22;4820;50.870;4.702;2024-02-26T09:43:57;6.90;99.90
9564;DHT22;4820;50.870;4.702;2024-02-26T09:46:24;6.90;99.90
9564;DHT22;4820;50.870;4.702;2024-02-26T09:48:51;6.80;99.90
9564;DHT22;4820;50.870;4.702;2024-02-26T09:51:17;6.80;99.90
9564;DHT22;4820;50.870;4.702;2024-02-26T09:53:44;6.80;99.90
9564;DHT22;4820;50.870;4.702;2024-02-26T09:56:12;6.70;99.90
9564;DHT22;4820;50.870;4.702;2024-02-26T09:58:41;6.80;99.90
9564;DHT22;4820;50.870;4.702;2024-02-26T10:01:11;6.80;99.90
9564;DHT22;4820;50.870;4.702;2024-02-26T10:03:40;6.80;99.90
9564;DHT22;4820;50.870;4.702;2024-02-26T10:06:08;6.80;99.90
9564;DHT22;4820;50.870;4.702;2024-02-26T10:08:35;6.80;99.90
9564;DHT22;4820;50.870;4.702;2024-02-26T10:11:01;6.80;99.90
9564;DHT22;4820;50.870;4.702;2024-02-26T10:13:26;6.80;99.90
9564;DHT22;4820;50.870;4.702;2024-02-26T10:15:52;6.80;99.90
9564;DHT22;4820;50.870;4.702;2024-02-26T10:18:18;6.90;99.90
9564;DHT22;4820;50.870;4.702;2024-02-26T10:20:59;6.80;99.90
9564;DHT22;4820;50.870;4.702;2024-02-26T10:23:26;6.80;99.90
9564;DHT22;4820;50.870;4.702;2024-02-26T10:25:55;6.90;99.90
9564;DHT22;4820;50.870;4.702;2024-02-26T10:28:22;7.00;99.90
9564;DHT22;4820;50.870;4.702;2024-02-26T10:30:48;7.00;99.90
9564;DHT22;4820;50.870;4.702;2024-02-26T10:33:14;7.00;99.90
9564;DHT22;4820;50.870;4.702;2024-02-26T10:35:45;6.90;99.90
9564;DHT22;4820;50.870;4.702;2024-02-26T10:38:12;6.80;99.90
9564;DHT22;4820;50.870;4.702;2024-02-26T10:40:37;6.90;99.90
9564;DHT22;4820;50.870;4.702;2024-02-26T10:43:03;6.90;99.90
9564;DHT22;4820;50.870;4.702;2024-02-26T10:45:29;6.80;99.90
9564;DHT22;4820;50.870;4.702;2024-02-26T10:47:55;6.90;99.90
9564;DHT22;4820;50.870;4.702;2024-02-26T10:50:20;6.80;99.90
9564;DHT22;4820;50.870;4.702;2024-02-26T10:52:46;6.80;99.90
9564;DHT22;4820;50.870;4.702;2024-02-26T10:55:16;6.80;99.90
9564;DHT22;4820;50.870;4.702;2024-02-26T10:57:44;6.80;99.90
9564;DHT22;4820;50.870;4.702;2024-02-26T11:00:14;6.70;99.90
9564;DHT22;4820;50.870;4.702;2024-02-26T11:02:45;6.70;99.90
9564;DHT22;4820;50.870;4.702;2024-02-26T11:05:12;6.70;99.90
9564;DHT22;4820;50.870;4.702;2024-02-26T11:07:38;6.80;99.90
9564;DHT22;4820;50.870;4.702;2024-02-26T11:10:07;6.70;99.90
9564;DHT22;4820;50.870;4.702;2024-02-26T11:12:34;6.70;99.90
9564;DHT22;4820;50.870;4.702;2024-02-26T11:15:03;6.70;99.90
9564;DHT22;4820;50.870;4.702;2024-02-26T11:17:29;6.70;99.90
9564;DHT22;4820;50.870;4.702;2024-02-26T11:19:57;6.60;99.90
9564;DHT22;4820;50.870;4.702;2024-02-26T11:22:24;6.70;99.90
9564;DHT22;4820;50.870;4.702;2024-02-26T11:24:55;6.70;99.90
9564;DHT22;4820;50.870;4.702;2024-02-26T11:27:35;6.60;99.90
9564;DHT22;4820;50.870;4.702;2024-02-26T11:30:03;6.60;99.90
9564;DHT22;4820;50.870;4.702;2024-02-26T11:32:31;6.70;99.90
9564;DHT22;4820;50.870;4.702;2024-02-26T11:34:58;6.70;99.90
9564;DHT22;4820;50.870;4.702;2024-02-26T11:37:25;6.70;99.90
9564;DHT22;4820;50.870;4.702;2024-02-26T11:39:52;6.70;99.90
9564;DHT22;4820;50.870;4.702;2024-02-26T11:42:23;6.70;99.90
9564;DHT22;4820;50.870;4.702;2024-02-26T11:44:49;6.60;99.90
9564;DHT22;4820;50.870;4.702;2024-02-26T11:47:20;6.60;99.90
9564;DHT22;4820;50.870;4.702;2024-02-26T11:49:46;6.60;99.90
9564;DHT22;4820;50.870;4.702;2024-02-26T11:52:13;6.60;99.90
9564;DHT22;4820;50.870;4.702;2024-02-26T11:54:39;6.60;99.90
9564;DHT22;4820;50.870;4.702;2024-02-26T11:57:28;6.60;99.90
9564;DHT22;4820;50.870;4.702;2024-02-26T12:00:15;6.50;99.90
9564;DHT22;4820;50.870;4.702;2024-02-26T12:02:50;6.50;99.90
9564;DHT22;4820;50.870;4.702;2024-02-26T12:05:27;6.50;99.90
9564;DHT22;4820;50.870;4.702;2024-02-26T12:08:03;6.60;99.90
9564;DHT22;4820;50.870;4.702;2024-02-26T12:10:35;6.60;99.90
9564;DHT22;4820;50.870;4.702;2024-02-26T12:13:11;6.60;99.90
9564;DHT22;4820;50.870;4.702;2024-02-26T12:15:43;6.60;99.90
9564;DHT22;4820;50.870;4.702;2024-02-26T12:18:10;6.60;99.90
9564;DHT22;4820;50.870;4.702;2024-02-26T12:20:40;6.60;99.90
9564;DHT22;4820;50.870;4.702;2024-02-26T12:23:07;6.70;99.90
9564;DHT22;4820;50.870;4.702;2024-02-26T12:25:33;6.70;99.90
9564;DHT22;4820;50.870;4.702;2024-02-26T12:27:59;6.70;99.90
9564;DHT22;4820;50.870;4.702;2024-02-26T12:30:26;6.70;99.90
9564;DHT22;4820;50.870;4.702;2024-02-26T12:32:53;6.80;99.90
9564;DHT22;4820;50.870;4.702;2024-02-26T12:35:25;6.80;99.90
9564;DHT22;4820;50.870;4.702;2024-02-26T12:37:53;6.80;99.90
9564;DHT22;4820;50.870;4.702;2024-02-26T12:40:19;6.80;99.90
9564;DHT22;4820;50.870;4.702;2024-02-26T12:42:45;6.70;99.90
9564;DHT22;4820;50.870;4.702;2024-02-26T12:45:12;6.80;99.90
9564;DHT22;4820;50.870;4.702;2024-02-26T12:47:45;6.80;99.90
9564;DHT22;4820;50.870;4.702;2024-02-26T12:50:15;6.80;99.90
9564;DHT22;4820;50.870;4.702;2024-02-26T12:52:43;6.90;99.90
9564;DHT22;4820;50.870;4.702;2024-02-26T12:55:13;6.90;99.90
9564;DHT22;4820;50.870;4.702;2024-02-26T12:57:40;6.80;99.90
9564;DHT22;4820;50.870;4.702;2024-02-26T13:00:10;6.90;99.90
9564;DHT22;4820;50.870;4.702;2024-02-26T13:02:37;6.90;99.90
9564;DHT22;4820;50.870;4.702;2024-02-26T13:05:06;6.90;99.90
9564;DHT22;4820;50.870;4.702;2024-02-26T13:07:33;6.90;99.90
9564;DHT22;4820;50.870;4.702;2024-02-26T13:10:00;6.90;99.90
9564;DHT22;4820;50.870;4.702;2024-02-26T13:12:26;6.90;99.90
9564;DHT22;4820;50.870;4.702;2024-02-26T13:14:59;6.90;99.90
9564;DHT22;4820;50.870;4.702;2024-02-26T13:17:25;6.90;99.90
9564;DHT22;4820;50.870;4.702;2024-02-26T13:19:53;6.90;99.90
9564;DHT22;4820;50.870;4.702;2024-02-26T13:22:23;6.90;99.90
9564;DHT22;4820;50.870;4.702;2024-02-26T13:24:59;6.90;99.90
9564;DHT22;4820;50.870;4.702;2024-02-26T13:27:25;6.90;99.90
9564;DHT22;4820;50.870;4.702;2024-02-26T13:30:11;6.90;99.90
9564;DHT22;4820;50.870;4.702;2024-02-26T13:32:38;6.90;99.90
9564;DHT22;4820;50.870;4.702;2024-02-26T13:35:09;6.80;99.90
9564;DHT22;4820;50.870;4.702;2024-02-26T13:37:35;6.80;99.90
9564;DHT22;4820;50.870;4.702;2024-02-26T13:40:08;6.80;99.90
9564;DHT22;4820;50.870;4.702;2024-02-26T13:42:38;6.90;99.90
9564;DHT22;4820;50.870;4.702;2024-02-26T13:45:05;6.90;99.90
9564;DHT22;4820;50.870;4.702;2024-02-26T13:47:34;6.90;99.90
9564;DHT22;4820;50.870;4.702;2024-02-26T13:50:00;6.90;99.90
9564;DHT22;4820;50.870;4.702;2024-02-26T13:52:26;6.90;99.90
9564;DHT22;4820;50.870;4.702;2024-02-26T13:54:52;6.90;99.90
9564;DHT22;4820;50.870;4.702;2024-02-26T13:57:19;7.00;99.90
9564;DHT22;4820;50.870;4.702;2024-02-26T13:59:45;7.10;99.90
9564;DHT22;4820;50.870;4.702;2024-02-26T14:02:11;7.10;99.90
9564;DHT22;4820;50.870;4.702;2024-02-26T14:04:37;7.10;99.90
9564;DHT22;4820;50.870;4.702;2024-02-26T14:07:04;7.10;99.90
9564;DHT22;4820;50.870;4.702;2024-02-26T14:09:30;7.10;99.90
9564;DHT22;4820;50.870;4.702;2024-02-26T14:11:55;7.00;99.90
9564;DHT22;4820;50.870;4.702;2024-02-26T14:14:21;7.00;99.90
9564;DHT22;4820;50.870;4.702;2024-02-26T14:16:47;7.00;99.90
9564;DHT22;4820;50.870;4.702;2024-02-26T14:19:12;7.00;99.90
9564;DHT22;4820;50.870;4.702;2024-02-26T14:21:38;7.00;99.90
9564;DHT22;4820;50.870;4.702;2024-02-26T14:24:04;7.00;99.90
9564;DHT22;4820;50.870;4.702;2024-02-26T14:26:30;6.90;99.90
9564;DHT22;4820;50.870;4.702;2024-02-26T14:28:55;6.90;99.90
9564;DHT22;4820;50.870;4.702;2024-02-26T14:31:21;6.80;99.90
9564;DHT22;4820;50.870;4.702;2024-02-26T14:33:47;6.80;99.90
9564;DHT22;4820;50.870;4.702;2024-02-26T14:36:14;6.70;99.90
9564;DHT22;4820;50.870;4.702;2024-02-26T14:38:39;6.70;99.90
9564;DHT22;4820;50.870;4.702;2024-02-26T14:41:05;6.60;99.90
9564;DHT22;4820;50.870;4.702;2024-02-26T14:43:31;6.60;99.90
9564;DHT22;4820;50.870;4.702;2024-02-26T14:46:00;6.60;99.90
9564;DHT22;4820;50.870;4.702;2024-02-26T14:48:26;6.60;99.90
9564;DHT22;4820;50.870;4.702;2024-02-26T14:50:52;6.50;99.90
9564;DHT22;4820;50.870;4.702;2024-02-26T14:53:17;6.60;99.90
9564;DHT22;4820;50.870;4.702;2024-02-26T14:55:45;6.60;99.90
9564;DHT22;4820;50.870;4.702;2024-02-26T14:58:11;6.60;99.90
9564;DHT22;4820;50.870;4.702;2024-02-26T15:00:38;6.60;99.90
9564;DHT22;4820;50.870;4.702;2024-02-26T15:03:04;6.60;99.90
9564;DHT22;4820;50.870;4.702;2024-02-26T15:05:29;6.70;99.90
9564;DHT22;4820;50.870;4.702;2024-02-26T15:07:55;6.70;99.90
9564;DHT22;4820;50.870;4.702;2024-02-26T15:10:21;6.60;99.90
9564;DHT22;4820;50.870;4.702;2024-02-26T15:12:46;6.60;99.90
9564;DHT22;4820;50.870;4.702;2024-02-26T15:15:12;6.70;99.90
9564;DHT22;4820;50.870;4.702;2024-02-26T15:17:38;6.60;99.90
9564;DHT22;4820;50.870;4.702;2024-02-26T15:20:04;6.70;99.90
9564;DHT22;4820;50.870;4.702;2024-02-26T15:22:34;6.70;99.90
9564;DHT22;4820;50.870;4.702;2024-02-26T15:24:59;6.80;99.90
9564;DHT22;4820;50.870;4.702;2024-02-26T15:27:25;6.60;99.90
9564;DHT22;4820;50.870;4.702;2024-02-26T15:29:51;6.70;99.90
9564;DHT22;4820;50.870;4.702;2024-02-26T15:32:24;6.80;99.90
9564;DHT22;4820;50.870;4.702;2024-02-26T15:34:50;6.70;99.90
9564;DHT22;4820;50.870;4.702;2024-02-26T15:37:17;6.70;99.90
9564;DHT22;4820;50.870;4.702;2024-02-26T15:39:44;6.70;99.90
9564;DHT22;4820;50.870;4.702;2024-02-26T15:42:11;6.80;99.90
9564;DHT22;4820;50.870;4.702;2024-02-26T15:44:37;6.80;99.90
9564;DHT22;4820;50.870;4.702;2024-02-26T15:47:04;6.80;99.90
9564;DHT22;4820;50.870;4.702;2024-02-26T15:49:30;6.70;99.90
9564;DHT22;4820;50.870;4.702;2024-02-26T15:51:56;6.80;99.90
9564;DHT22;4820;50.870;4.702;2024-02-26T15:54:22;6.70;99.90
9564;DHT22;4820;50.870;4.702;2024-02-26T15:56:47;6.80;99.90
9564;DHT22;4820;50.870;4.702;2024-02-26T15:59:13;6.80;99.90
9564;DHT22;4820;50.870;4.702;2024-02-26T16:01:39;6.70;99.90
9564;DHT22;4820;50.870;4.702;2024-02-26T16:04:04;6.70;99.90
9564;DHT22;4820;50.870;4.702;2024-02-26T16:06:41;6.70;99.90
9564;DHT22;4820;50.870;4.702;2024-02-26T16:09:08;6.60;99.90
9564;DHT22;4820;50.870;4.702;2024-02-26T16:11:34;6.60;99.90
9564;DHT22;4820;50.870;4.702;2024-02-26T16:16:40;6.60;99.90